Time;durP1;ratioP1;P1;durP2;ratioP2;P2;SDS_P1;SDS_P2;PMS_P1;PMS_P2;Temp;Humidity;BMP_temperature;BMP_pressure;BME280_temperature;BME280_humidity;BME280_pressure;Samples;Min_cycle;Max_cycle;Signal;HPM_P1;HPM_P2
2021/11/21 00:01:55;;;;;;;14.98;11.25;;;;;;;10.64;61.32;100916.50;5098790;28;20463;-68
2021/11/21 00:04:21;;;;;;;17.65;12.43;;;;;;;10.87;60.92;100907.94;5093777;28;20544;-67
2021/11/21 00:06:47;;;;;;;15.68;13.10;;;;;;;10.69;61.83;100945.41;5089530;28;20082;-68
2021/11/21 00:09:12;;;;;;;18.77;13.07;;;;;;;10.72;61.28;100911.31;5082993;28;20430;-67
2021/11/21 00:11:38;;;;;;;14.90;12.38;;;;;;;10.72;61.49;100945.41;5085766;28;20370;-67
2021/11/21 00:14:04;;;;;;;15.80;11.82;;;;;;;10.56;61.78;100899.84;5084738;28;20044;-67
2021/11/21 00:16:29;;;;;;;13.95;10.77;;;;;;;11.11;60.96;100939.59;5078887;28;20066;-68
2021/11/21 00:18:55;;;;;;;15.05;11.52;;;;;;;11.18;60.54;100940.50;5085217;28;20738;-68
2021/11/21 00:21:20;;;;;;;22.55;11.77;;;;;;;11.07;60.71;100906.28;5067032;28;20035;-67
2021/11/21 00:23:46;;;;;;;12.30;10.98;;;;;;;11.08;60.20;100894.94;5084468;28;20119;-68
2021/11/21 00:26:12;;;;;;;19.27;12.50;;;;;;;11.24;59.97;100898.53;5083130;28;20048;-68
2021/11/21 00:28:37;;;;;;;19.38;11.23;;;;;;;11.30;59.77;100919.53;5084092;28;20060;-67
2021/11/21 00:31:03;;;;;;;14.48;11.55;;;;;;;11.46;59.24;100911.75;5085549;28;20044;-68
2021/11/21 00:33:29;;;;;;;18.80;10.88;;;;;;;11.50;59.29;100914.41;5050682;28;20479;-68
2021/11/21 00:35:55;;;;;;;14.80;11.73;;;;;;;11.47;59.31;100910.88;5087059;28;20093;-68
2021/11/21 00:38:20;;;;;;;16.63;13.05;;;;;;;11.62;58.57;100922.31;5083721;28;20083;-68
2021/11/21 00:40:46;;;;;;;17.45;13.55;;;;;;;11.42;58.97;100918.72;5087540;28;20051;-67
2021/11/21 00:43:12;;;;;;;16.98;12.63;;;;;;;11.33;59.21;100903.81;5083238;28;20731;-67
2021/11/21 00:45:37;;;;;;;25.23;12.38;;;;;;;11.31;59.24;100912.56;5086090;28;20716;-69
2021/11/21 00:48:03;;;;;;;17.88;11.80;;;;;;;11.27;59.14;100884.53;5084735;28;20151;-67
2021/11/21 00:50:31;;;;;;;19.15;12.25;;;;;;;11.41;58.94;100911.72;5084997;28;20446;-67
2021/11/21 00:53:03;;;;;;;17.15;12.68;;;;;;;11.34;58.74;100881.03;5083849;28;20046;-65
2021/11/21 00:56:02;;;;;;;18.48;12.77;;;;;;;11.24;59.02;100919.53;5084179;28;20772;-66
2021/11/21 00:58:20;;;;;;;15.27;11.52;;;;;;;11.04;59.24;100897.53;5084932;28;20040;-67
2021/11/21 01:00:49;;;;;;;14.77;11.80;;;;;;;10.86;60.33;100899.16;5083914;28;20036;-67
2021/11/21 01:03:17;;;;;;;14.93;10.77;;;;;;;10.98;60.50;100891.38;5084950;28;20024;-66
2021/11/21 01:08:05;;;;;;;14.70;12.82;;;;;;;11.05;60.14;100894.91;5010189;28;20976;-66
2021/11/21 01:10:32;;;;;;;13.85;11.60;;;;;;;11.19;59.79;100893.25;4998392;28;20060;-66
2021/11/21 01:12:57;;;;;;;16.35;11.68;;;;;;;11.07;59.55;100859.00;4996683;28;20529;-66
2021/11/21 01:15:24;;;;;;;14.52;11.30;;;;;;;11.03;59.39;100867.78;4998621;28;20037;-68
2021/11/21 01:17:51;;;;;;;15.15;11.35;;;;;;;11.09;58.86;100864.28;4995606;28;20140;-67
2021/11/21 01:20:19;;;;;;;16.75;13.20;;;;;;;10.86;60.04;100885.16;4999683;28;20111;-69
2021/11/21 01:22:45;;;;;;;15.43;11.85;;;;;;;10.74;60.41;100889.44;4997542;28;20126;-67
2021/11/21 01:25:12;;;;;;;16.05;13.38;;;;;;;10.66;60.80;100885.91;4999776;28;20519;-68
2021/11/21 01:27:39;;;;;;;15.32;12.57;;;;;;;10.55;60.70;100862.19;5000329;28;20415;-68
2021/11/21 01:30:08;;;;;;;14.57;11.75;;;;;;;11.01;60.04;100890.50;5002471;28;20076;-68
2021/11/21 01:32:34;;;;;;;20.52;11.60;;;;;;;11.04;59.20;100887.88;4996485;28;20065;-68
2021/11/21 01:35:00;;;;;;;15.82;13.52;;;;;;;10.73;59.82;100879.81;4999014;28;20410;-67
2021/11/21 01:37:26;;;;;;;14.15;10.90;;;;;;;10.79;59.83;100889.47;4997357;28;20039;-66
2021/11/21 01:39:51;;;;;;;18.20;11.07;;;;;;;10.73;59.92;100889.44;4998959;28;20120;-67
2021/11/21 01:42:17;;;;;;;12.68;9.85;;;;;;;10.93;59.75;100898.34;5001937;28;20045;-67
2021/11/21 01:44:42;;;;;;;13.60;11.27;;;;;;;10.52;59.92;100859.56;4996589;28;20125;-67
2021/11/21 01:48:05;;;;;;;16.77;12.13;;;;;;;10.62;60.28;100857.88;5044979;27;20647;-67
2021/11/21 01:50:35;;;;;;;15.65;11.55;;;;;;;10.77;60.29;100883.38;5027287;28;20395;-67
2021/11/21 01:53:01;;;;;;;17.25;11.02;;;;;;;10.60;61.19;100893.72;5023131;28;20045;-66
2021/11/21 01:55:28;;;;;;;13.20;11.27;;;;;;;10.69;60.81;100887.66;5025888;28;20125;-67
2021/11/21 01:57:55;;;;;;;18.60;11.20;;;;;;;10.84;60.48;100879.91;5021939;28;20065;-66
2021/11/21 02:00:21;;;;;;;14.57;10.77;;;;;;;10.65;60.58;100847.41;5024811;28;20064;-67
2021/11/21 02:02:47;;;;;;;19.50;11.35;;;;;;;10.43;60.79;100846.38;5023197;28;20053;-67
2021/11/21 02:05:13;;;;;;;12.13;10.85;;;;;;;10.65;60.59;100854.38;5023715;28;20034;-68
2021/11/21 02:10:06;;;;;;;15.18;11.70;;;;;;;10.67;60.41;100832.53;5043429;28;20622;-67
2021/11/21 02:12:31;;;;;;;11.73;10.18;;;;;;;10.80;60.28;100886.00;5022667;28;20105;-66
2021/11/21 02:14:57;;;;;;;14.18;10.70;;;;;;;10.81;59.66;100855.38;5018945;28;20062;-66
2021/11/21 02:17:27;;;;;;;15.82;11.57;;;;;;;10.68;59.95;100850.06;5019023;28;20780;-66
2021/11/21 02:19:53;;;;;;;12.73;9.55;;;;;;;10.74;60.14;100894.69;5021494;28;20050;-66
2021/11/21 02:22:20;;;;;;;15.43;11.65;;;;;;;10.54;60.35;100896.31;5020617;28;20087;-67
2021/11/21 02:24:46;;;;;;;14.85;11.75;;;;;;;10.30;60.59;100858.53;5020346;28;20045;-68
2021/11/21 02:27:18;;;;;;;16.10;11.00;;;;;;;10.03;61.86;100859.13;5019714;28;20047;-67
2021/11/21 02:29:43;;;;;;;13.93;11.18;;;;;;;10.20;61.72;100876.75;5021326;28;20127;-68
2021/11/21 02:32:09;;;;;;;12.43;10.43;;;;;;;10.29;61.76;100875.09;5017096;28;20049;-68
2021/11/21 02:34:34;;;;;;;15.75;12.82;;;;;;;10.34;61.87;100876.03;5019779;28;20639;-69
2021/11/21 02:37:00;;;;;;;15.65;12.38;;;;;;;10.64;60.77;100871.00;5019748;28;20053;-68
2021/11/21 02:39:25;;;;;;;15.20;11.52;;;;;;;10.39;61.32;100869.94;5018753;28;20088;-66
2021/11/21 02:41:51;;;;;;;14.77;12.20;;;;;;;10.02;62.06;100831.16;5020793;28;20107;-67
2021/11/21 02:44:16;;;;;;;16.00;11.98;;;;;;;10.41;61.17;100855.09;5021628;28;20425;-69
2021/11/21 02:46:42;;;;;;;15.73;12.98;;;;;;;10.52;60.88;100856.94;5016934;28;20060;-68
2021/11/21 02:49:07;;;;;;;14.75;11.48;;;;;;;10.31;61.57;100852.41;5022821;28;20053;-67
2021/11/21 02:51:33;;;;;;;14.98;12.70;;;;;;;10.46;60.99;100853.38;5017829;28;20408;-67
2021/11/21 02:53:58;;;;;;;12.30;10.63;;;;;;;10.37;60.98;100856.81;5022353;28;20053;-67
2021/11/21 02:56:23;;;;;;;15.98;12.88;;;;;;;9.40;63.60;100866.28;5019926;28;20041;-67
2021/11/21 02:58:49;;;;;;;14.18;11.95;;;;;;;9.38;64.45;100872.38;5012875;28;20053;-67
2021/11/21 03:01:19;;;;;;;14.88;11.88;;;;;;;8.98;65.58;100870.13;5016340;28;20041;-67
2021/11/21 03:03:45;;;;;;;18.65;13.32;;;;;;;9.88;63.00;100866.81;5018805;28;20061;-66
2021/11/21 03:06:11;;;;;;;16.70;12.88;;;;;;;9.96;62.22;100832.84;5016713;28;20033;-67
2021/11/21 03:08:38;;;;;;;15.57;12.10;;;;;;;9.83;62.61;100855.41;5020191;28;20054;-67
2021/11/21 03:11:16;;;;;;;15.35;11.90;;;;;;;9.80;62.15;100816.06;5018361;28;20054;-68
2021/11/21 03:13:42;;;;;;;12.40;10.70;;;;;;;9.78;62.44;100813.44;5018609;28;20045;-65
2021/11/21 03:16:08;;;;;;;15.43;11.95;;;;;;;10.11;61.45;100823.38;5020429;28;20103;-67
2021/11/21 03:18:34;;;;;;;15.93;11.77;;;;;;;10.50;61.02;100842.91;5018217;28;20030;-68
2021/11/21 03:20:59;;;;;;;14.20;11.60;;;;;;;10.56;60.54;100844.72;5008077;28;20044;-68
2021/11/21 03:23:25;;;;;;;19.15;13.43;;;;;;;10.47;60.57;100832.41;5005394;28;20069;-67
2021/11/21 03:25:50;;;;;;;13.00;11.50;;;;;;;10.49;60.29;100838.56;5003115;28;20461;-67
2021/11/21 03:28:16;;;;;;;15.50;11.80;;;;;;;10.51;60.50;100851.66;5005811;28;20054;-67
2021/11/21 03:30:42;;;;;;;20.88;13.98;;;;;;;9.83;61.06;100808.22;5007553;28;20045;-68
2021/11/21 03:33:08;;;;;;;17.15;12.23;;;;;;;10.23;60.85;100854.06;5001486;28;20088;-67
2021/11/21 03:35:34;;;;;;;15.57;12.68;;;;;;;9.99;60.96;100807.50;5004430;28;20049;-67
2021/11/21 03:38:01;;;;;;;14.32;12.52;;;;;;;10.23;60.96;100843.56;5002030;28;20069;-66
2021/11/21 03:40:26;;;;;;;14.18;12.68;;;;;;;10.01;61.28;100810.16;5007253;28;20421;-66
2021/11/21 03:42:52;;;;;;;14.65;12.27;;;;;;;10.29;60.70;100832.28;5006953;28;20049;-67
2021/11/21 03:45:18;;;;;;;13.55;11.38;;;;;;;10.30;60.50;100844.50;5004252;28;20409;-66
2021/11/21 03:47:44;;;;;;;17.08;12.13;;;;;;;9.73;60.72;100775.81;5004922;28;20509;-66
2021/11/21 03:50:12;;;;;;;14.75;12.68;;;;;;;10.01;61.13;100842.47;5003594;28;20460;-68
2021/11/21 03:52:42;;;;;;;20.52;12.60;;;;;;;9.91;60.87;100806.56;5005529;28;20516;-68
2021/11/21 03:55:09;;;;;;;19.95;13.20;;;;;;;9.85;61.90;100837.97;5005365;28;20135;-67
2021/11/21 03:57:35;;;;;;;13.23;11.23;;;;;;;10.01;61.45;100829.38;5003312;28;20033;-68
2021/11/21 04:00:01;;;;;;;13.38;11.95;;;;;;;9.65;61.94;100794.09;5007610;28;20037;-68
2021/11/21 04:01:27;;;;;;;;;;;;;;;10.08;61.49;100819.81;2971104;28;5179;-68
2021/11/21 04:03:53;;;;;;;22.60;13.30;;;;;;;10.25;60.77;100819.97;5006026;28;19913;-67
2021/11/21 04:06:18;;;;;;;14.00;12.43;;;;;;;10.31;60.67;100820.91;5003502;28;20505;-67
2021/11/21 04:08:44;;;;;;;17.27;12.70;;;;;;;10.33;60.13;100831.44;5006016;28;20052;-66
2021/11/21 04:11:10;;;;;;;15.07;11.88;;;;;;;10.24;60.26;100808.59;5001930;28;20351;-67
2021/11/21 04:13:36;;;;;;;15.18;12.50;;;;;;;10.23;60.04;100787.59;5006810;28;20124;-68
2021/11/21 04:16:01;;;;;;;14.43;11.93;;;;;;;10.21;60.82;100810.31;5003012;28;20054;-67
2021/11/21 04:18:27;;;;;;;15.52;11.13;;;;;;;10.29;60.41;100806.91;5001858;28;20460;-67
2021/11/21 04:20:52;;;;;;;13.73;12.15;;;;;;;10.04;60.83;100770.84;5005458;28;20462;-67
2021/11/21 04:23:18;;;;;;;15.48;12.77;;;;;;;10.24;60.96;100792.84;4999907;28;20046;-67
2021/11/21 04:25:44;;;;;;;21.45;12.50;;;;;;;10.08;61.11;100790.97;5005082;28;20045;-66
2021/11/21 04:28:09;;;;;;;15.60;12.65;;;;;;;10.12;61.03;100785.78;5030857;28;20445;-67
2021/11/21 04:30:35;;;;;;;16.90;13.38;;;;;;;10.17;60.83;100787.56;5006017;28;20481;-67
2021/11/21 04:33:03;;;;;;;18.40;12.60;;;;;;;10.04;60.78;100745.50;5005829;28;20033;-68
2021/11/21 04:35:28;;;;;;;14.63;12.55;;;;;;;10.03;60.41;100740.25;5001753;28;20543;-67
2021/11/21 04:37:54;;;;;;;16.27;13.52;;;;;;;9.99;60.94;100733.22;5006514;28;20061;-67
2021/11/21 04:40:19;;;;;;;17.17;13.82;;;;;;;10.21;60.99;100756.13;5003313;28;20096;-67
2021/11/21 04:42:46;;;;;;;17.77;12.70;;;;;;;9.75;61.55;100740.03;5002399;28;20095;-66
2021/11/21 04:45:13;;;;;;;14.45;12.90;;;;;;;9.85;61.55;100781.16;5004719;28;20088;-67
2021/11/21 04:47:39;;;;;;;15.80;12.85;;;;;;;9.22;62.82;100743.88;5004068;28;20469;-67
2021/11/21 04:50:08;;;;;;;20.85;12.65;;;;;;;9.70;61.88;100768.81;5003800;28;20048;-67
2021/11/21 04:52:33;;;;;;;16.67;13.60;;;;;;;9.84;61.88;100739.25;5003425;28;20049;-67
2021/11/21 04:54:59;;;;;;;17.88;13.75;;;;;;;9.85;60.48;100728.75;5005083;28;20046;-66
2021/11/21 04:57:24;;;;;;;15.80;12.23;;;;;;;9.84;59.69;100740.13;5032600;28;20745;-67
2021/11/21 04:59:50;;;;;;;18.40;12.75;;;;;;;9.63;60.37;100748.66;5004621;28;20030;-67
2021/11/21 05:02:17;;;;;;;16.13;12.68;;;;;;;9.70;60.68;100770.56;5005384;28;20132;-67
2021/11/21 05:04:42;;;;;;;20.77;13.90;;;;;;;9.86;60.88;100763.72;5003669;28;20121;-67
2021/11/21 05:07:08;;;;;;;14.95;13.32;;;;;;;9.66;61.11;100734.72;5001177;28;20111;-67
2021/11/21 05:09:33;;;;;;;16.58;13.00;;;;;;;9.90;61.21;100757.63;5003174;28;20145;-67
2021/11/21 05:11:59;;;;;;;15.02;12.57;;;;;;;9.93;60.88;100762.91;5005842;28;20393;-67
2021/11/21 05:14:24;;;;;;;16.73;12.95;;;;;;;9.82;61.36;100762.81;4999990;28;20057;-68
2021/11/21 05:16:50;;;;;;;17.83;12.73;;;;;;;10.13;60.98;100757.81;5005051;28;20034;-66
2021/11/21 05:19:16;;;;;;;14.82;12.80;;;;;;;10.19;60.38;100768.34;5004610;28;20034;-66
2021/11/21 05:21:41;;;;;;;18.67;13.82;;;;;;;10.01;60.23;100742.88;5002476;28;20054;-67
2021/11/21 05:24:07;;;;;;;19.45;13.48;;;;;;;10.18;60.31;100765.72;5005111;28;20060;-66
2021/11/21 05:26:33;;;;;;;22.20;14.52;;;;;;;10.16;60.73;100778.81;5002241;28;20498;-67
2021/11/21 05:28:59;;;;;;;24.08;13.25;;;;;;;9.81;60.78;100760.16;5001061;28;20046;-68
2021/11/21 05:31:25;;;;;;;16.60;13.20;;;;;;;9.01;63.45;100780.28;5003281;28;20052;-68
2021/11/21 05:33:51;;;;;;;20.92;15.02;;;;;;;9.37;63.05;100787.69;5002962;28;21654;-67
2021/11/21 05:36:17;;;;;;;17.15;13.82;;;;;;;9.73;61.78;100744.38;5005814;28;20032;-68
2021/11/21 05:38:43;;;;;;;15.38;13.23;;;;;;;10.13;60.68;100781.41;5002057;28;20911;-67
2021/11/21 05:41:08;;;;;;;16.33;13.75;;;;;;;10.14;60.37;100777.94;5002400;28;20392;-67
2021/11/21 05:43:34;;;;;;;14.07;12.57;;;;;;;9.94;60.30;100759.41;5005060;28;20054;-68
2021/11/21 05:45:59;;;;;;;17.23;13.15;;;;;;;10.02;60.19;100769.94;5002121;28;20080;-66
2021/11/21 05:48:25;;;;;;;20.50;14.52;;;;;;;9.99;60.89;100783.91;5003720;28;20048;-68
2021/11/21 05:50:51;;;;;;;20.92;14.73;;;;;;;10.02;60.93;100788.31;5001327;28;20075;-66
2021/11/21 05:53:17;;;;;;;18.20;13.65;;;;;;;9.98;60.32;100774.31;5000980;28;20050;-67
2021/11/21 05:55:42;;;;;;;17.77;12.88;;;;;;;9.75;61.63;100778.47;5003823;28;20049;-68
2021/11/21 05:58:08;;;;;;;21.98;15.75;;;;;;;9.99;60.86;100772.56;4999338;28;20568;-68
2021/11/21 06:00:34;;;;;;;14.50;13.02;;;;;;;9.72;60.97;100735.66;5002819;28;20042;-67
2021/11/21 06:02:59;;;;;;;20.60;14.68;;;;;;;9.79;61.19;100770.66;5003144;28;20393;-68
2021/11/21 06:05:26;;;;;;;17.27;14.65;;;;;;;9.02;63.18;100748.03;5003982;28;20445;-67
2021/11/21 06:07:51;;;;;;;19.27;13.18;;;;;;;9.64;62.03;100786.22;5000038;28;20103;-65
2021/11/21 06:10:17;;;;;;;18.73;13.20;;;;;;;9.65;61.69;100775.75;5002410;28;20069;-66
2021/11/21 06:12:42;;;;;;;20.67;14.15;;;;;;;9.16;63.06;100782.22;5004576;28;20499;-65
2021/11/21 06:15:09;;;;;;;17.25;14.32;;;;;;;9.35;63.05;100791.16;5002534;28;20532;-67
2021/11/21 06:17:35;;;;;;;18.15;13.18;;;;;;;9.85;61.82;100789.03;5004513;28;20073;-66
2021/11/21 06:20:01;;;;;;;18.27;15.13;;;;;;;9.78;61.27;100754.91;5001147;28;20052;-67
2021/11/21 06:22:27;;;;;;;17.00;12.65;;;;;;;9.47;61.80;100786.94;4997957;28;20401;-68
2021/11/21 06:24:52;;;;;;;17.13;12.85;;;;;;;9.89;61.33;100788.19;5004762;28;20042;-67
2021/11/21 06:27:18;;;;;;;17.08;13.85;;;;;;;10.20;60.19;100793.69;5001936;28;20480;-66
2021/11/21 06:30:08;;;;;;;15.63;12.98;;;;;;;9.99;61.11;100780.41;5058849;28;20633;-68
2021/11/21 06:32:35;;;;;;;20.92;13.70;;;;;;;9.59;62.50;100787.91;5000498;28;20520;-69
2021/11/21 06:36:07;;;;;;;20.35;15.85;;;;;;;10.21;60.91;100786.69;5096824;27;20641;-68
2021/11/21 06:38:34;;;;;;;16.17;14.25;;;;;;;10.14;60.58;100752.59;5024033;27;20057;-68
2021/11/21 06:40:59;;;;;;;26.05;16.48;;;;;;;10.38;59.71;100747.53;5047908;28;20080;-66
2021/11/21 06:43:25;;;;;;;17.63;14.23;;;;;;;8.74;63.93;100752.03;5014746;28;20046;-68
2021/11/21 06:45:51;;;;;;;15.77;13.68;;;;;;;8.68;65.31;100791.19;5017557;28;20466;-66
2021/11/21 06:48:20;;;;;;;27.05;17.63;;;;;;;8.80;66.13;100778.28;5017608;28;20418;-68
2021/11/21 06:50:48;;;;;;;18.20;13.65;;;;;;;8.84;65.26;100777.47;5014619;28;20057;-68
2021/11/21 06:53:15;;;;;;;15.10;13.23;;;;;;;9.70;62.74;100781.91;5012015;28;20045;-67
2021/11/21 06:55:42;;;;;;;19.30;14.50;;;;;;;10.14;61.41;100762.19;5010021;28;20418;-68
2021/11/21 06:58:08;;;;;;;17.88;15.25;;;;;;;10.22;61.23;100767.50;5022509;28;20041;-67
2021/11/21 07:00:34;;;;;;;17.30;15.27;;;;;;;10.55;60.25;100764.22;5036420;28;20460;-68
2021/11/21 07:02:59;;;;;;;15.38;13.77;;;;;;;9.26;63.01;100736.94;5020703;28;20038;-67
2021/11/21 07:05:25;;;;;;;16.92;13.88;;;;;;;8.85;64.88;100738.25;5013285;28;20871;-67
2021/11/21 07:08:08;;;;;;;26.48;15.63;;;;;;;9.46;63.90;100748.50;5030624;27;20636;-67
2021/11/21 07:10:34;;;;;;;18.60;15.43;;;;;;;9.75;62.21;100708.59;5003238;28;20046;-67
2021/11/21 07:13:02;;;;;;;17.75;14.35;;;;;;;10.21;61.31;100743.03;5002103;28;20050;-67
2021/11/21 07:15:28;;;;;;;16.95;13.57;;;;;;;9.82;62.67;100733.97;5003055;28;20368;-67
2021/11/21 07:17:54;;;;;;;17.10;14.02;;;;;;;9.35;63.37;100699.50;5000930;28;20405;-66
2021/11/21 07:20:20;;;;;;;18.52;15.57;;;;;;;9.33;64.34;100735.28;5004315;28;20111;-67
2021/11/21 07:22:49;;;;;;;20.00;14.93;;;;;;;9.17;64.76;100708.91;5000901;28;20165;-68
2021/11/21 07:25:17;;;;;;;20.75;14.95;;;;;;;9.32;64.98;100723.94;4998834;28;20088;-67
2021/11/21 07:27:43;;;;;;;16.27;13.63;;;;;;;8.82;65.30;100703.28;5002269;28;20848;-68
2021/11/21 07:30:11;;;;;;;21.20;16.85;;;;;;;9.04;65.52;100735.84;5001900;28;20410;-67
2021/11/21 07:32:37;;;;;;;22.15;15.82;;;;;;;9.84;63.75;100732.25;5002981;28;20045;-66
2021/11/21 07:35:02;;;;;;;24.23;15.73;;;;;;;10.26;61.81;100724.69;5000389;28;20053;-68
2021/11/21 07:37:28;;;;;;;22.55;14.40;;;;;;;10.37;61.43;100727.41;5001468;28;20061;-68
2021/11/21 07:39:53;;;;;;;21.90;15.40;;;;;;;10.59;60.69;100731.03;5001547;28;20038;-67
2021/11/21 07:42:20;;;;;;;18.65;16.65;;;;;;;10.00;62.24;100732.38;5002625;28;20540;-67
2021/11/21 07:44:45;;;;;;;19.05;15.77;;;;;;;10.20;61.94;100683.56;5003502;28;20050;-67
2021/11/21 07:47:10;;;;;;;18.92;15.52;;;;;;;10.59;61.00;100713.53;4996868;28;20144;-67
2021/11/21 07:49:36;;;;;;;20.55;16.00;;;;;;;10.96;59.39;100709.31;5011418;28;20508;-68
2021/11/21 07:52:01;;;;;;;21.58;13.68;;;;;;;10.80;59.74;100691.75;5002379;28;20410;-66
2021/11/21 07:54:27;;;;;;;26.70;16.33;;;;;;;10.89;60.45;100720.66;4998924;28;20034;-67
2021/11/21 07:56:52;;;;;;;16.52;13.75;;;;;;;10.24;60.82;100687.97;5000707;28;20062;-67
2021/11/21 07:59:18;;;;;;;15.57;13.52;;;;;;;9.87;62.57;100679.84;5001023;28;20540;-68
2021/11/21 08:01:46;;;;;;;21.00;14.20;;;;;;;9.59;62.72;100681.38;4999724;28;20149;-67
2021/11/21 08:04:11;;;;;;;20.05;15.50;;;;;;;10.44;61.60;100710.81;4997737;28;20057;-68
2021/11/21 08:06:37;;;;;;;18.15;15.52;;;;;;;10.07;62.11;100697.47;4995732;28;20139;-67
2021/11/21 08:09:02;;;;;;;22.33;16.08;;;;;;;10.64;61.06;100710.94;5000802;28;20033;-68
2021/11/21 08:12:09;;;;;;;17.83;15.23;;;;;;;11.27;59.51;100674.38;5046315;28;20613;-70
2021/11/21 08:14:34;;;;;;;18.80;16.13;;;;;;;11.13;59.00;100713.72;4999579;28;20046;-68
2021/11/21 08:17:00;;;;;;;22.02;15.75;;;;;;;11.35;59.06;100715.50;4999340;28;20072;-67
2021/11/21 08:19:25;;;;;;;19.98;15.25;;;;;;;11.77;57.99;100723.44;4998593;28;20054;-67
2021/11/21 08:21:51;;;;;;;31.65;17.83;;;;;;;11.99;57.16;100701.56;5030246;28;20043;-67
2021/11/21 08:24:16;;;;;;;29.48;17.85;;;;;;;11.83;57.73;100705.03;4996595;28;20096;-67
2021/11/21 08:26:42;;;;;;;18.90;15.77;;;;;;;12.10;56.79;100704.16;5001653;28;20046;-67
2021/11/21 08:29:07;;;;;;;22.48;16.52;;;;;;;11.52;57.83;100660.38;4998479;28;20050;-68
2021/11/21 08:31:33;;;;;;;20.15;15.52;;;;;;;11.88;57.02;100692.81;4997814;28;20058;-70
2021/11/21 08:33:58;;;;;;;21.35;17.63;;;;;;;10.56;61.03;100703.91;4988381;28;20054;-67
2021/11/21 08:36:24;;;;;;;21.15;16.85;;;;;;;11.45;58.58;100681.38;4998062;28;20113;-68
2021/11/21 08:38:49;;;;;;;30.08;17.42;;;;;;;12.02;57.42;100669.13;4997825;28;20026;-66
2021/11/21 08:41:15;;;;;;;24.90;17.98;;;;;;;12.10;57.08;100680.47;4999086;28;20068;-68
2021/11/21 08:43:41;;;;;;;20.25;16.38;;;;;;;12.59;55.70;100696.13;4993236;28;20058;-67
2021/11/21 08:46:07;;;;;;;19.13;16.25;;;;;;;12.65;55.76;100685.59;4993681;28;20113;-68
2021/11/21 08:48:32;;;;;;;25.10;16.83;;;;;;;12.93;54.72;100685.47;4993861;28;21006;-68
2021/11/21 08:52:09;;;;;;;20.58;16.48;;;;;;;12.56;54.99;100680.38;5030701;28;20708;-68
2021/11/21 08:54:36;;;;;;;21.10;14.82;;;;;;;12.94;55.39;100670.53;4999584;28;20408;-67
2021/11/21 08:57:01;;;;;;;25.05;17.40;;;;;;;12.99;54.23;100663.47;4998897;28;20042;-68
2021/11/21 08:59:27;;;;;;;20.38;17.35;;;;;;;13.03;54.79;100671.34;5001567;28;20541;-67
2021/11/21 09:01:52;;;;;;;18.35;16.35;;;;;;;13.07;54.31;100637.97;4998358;28;20042;-67
2021/11/21 09:04:18;;;;;;;20.17;16.73;;;;;;;12.93;55.17;100663.53;5004227;28;20049;-67
2021/11/21 09:06:45;;;;;;;25.55;16.85;;;;;;;12.54;55.75;100655.78;5015120;28;20397;-67
2021/11/21 09:10:16;;;;;;;17.42;13.63;;;;;;;12.16;54.87;100524.41;5091427;27;20626;-66
2021/11/21 09:12:42;;;;;;;19.15;15.35;;;;;;;12.44;55.09;100548.81;5049449;28;20040;-66
2021/11/21 09:15:10;;;;;;;18.38;15.73;;;;;;;13.29;54.06;100642.22;5049750;28;20020;-68
2021/11/21 09:17:36;;;;;;;24.05;17.38;;;;;;;13.70;52.85;100614.66;5055798;28;20492;-67
2021/11/21 09:20:02;;;;;;;20.33;15.73;;;;;;;14.19;51.40;100615.91;5043605;28;20083;-67
2021/11/21 09:22:28;;;;;;;18.33;14.95;;;;;;;14.03;51.70;100606.41;5037832;28;20504;-68
2021/11/21 09:24:53;;;;;;;22.77;15.48;;;;;;;13.39;53.51;100607.88;5041210;28;20056;-67
2021/11/21 09:27:19;;;;;;;20.48;14.23;;;;;;;14.05;52.47;100625.72;5039862;28;20111;-66
2021/11/21 09:29:44;;;;;;;25.17;15.02;;;;;;;13.35;53.62;100590.38;5042401;28;20049;-67
2021/11/21 09:32:11;;;;;;;18.00;14.75;;;;;;;13.70;53.01;100587.41;5037436;28;20556;-66
2021/11/21 09:34:38;;;;;;;18.55;14.68;;;;;;;14.08;52.84;100594.03;5036232;28;20861;-67
2021/11/21 09:37:07;;;;;;;17.23;14.18;;;;;;;14.28;52.31;100604.34;5035119;28;20041;-67
2021/11/21 09:39:33;;;;;;;22.25;12.68;;;;;;;14.11;51.49;100568.47;5037088;28;20025;-67
2021/11/21 09:41:59;;;;;;;18.50;13.80;;;;;;;13.74;52.57;100568.00;5034562;28;20124;-67
2021/11/21 09:44:25;;;;;;;27.35;15.35;;;;;;;13.84;52.91;100582.84;5033566;28;20120;-67
2021/11/21 09:46:52;;;;;;;26.80;12.07;;;;;;;14.10;52.68;100568.50;5036071;28;20072;-67
2021/11/21 09:49:19;;;;;;;18.17;13.52;;;;;;;13.95;52.55;100548.44;5030720;28;20607;-66
2021/11/21 09:51:45;;;;;;;20.35;15.07;;;;;;;13.65;52.70;100542.63;5036049;28;20053;-66
2021/11/21 09:54:11;;;;;;;17.17;12.07;;;;;;;14.03;52.58;100558.91;5039612;28;20033;-80
2021/11/21 09:56:37;;;;;;;17.83;12.65;;;;;;;14.44;51.57;100561.00;5046775;28;20044;-67
2021/11/21 09:59:02;;;;;;;15.10;11.55;;;;;;;13.94;52.15;100528.22;5035090;28;20045;-67
2021/11/21 10:01:43;;;;;;;15.73;11.43;;;;;;;14.42;51.55;100524.97;5034426;28;20120;-67
2021/11/21 10:04:11;;;;;;;20.17;12.45;;;;;;;14.51;51.14;100524.84;5036245;28;20493;-68
2021/11/21 10:06:45;;;;;;;17.85;12.40;;;;;;;13.52;53.41;100514.63;5034315;28;20041;-67
2021/11/21 10:09:18;;;;;;;21.13;12.20;;;;;;;14.19;52.05;100515.59;5036165;28;20172;-67
2021/11/21 10:12:02;;;;;;;17.70;12.77;;;;;;;14.79;50.52;100527.97;5039948;28;20049;-67
2021/11/21 10:14:28;;;;;;;18.27;13.20;;;;;;;15.22;50.10;100524.63;5036463;28;20057;-67
2021/11/21 10:16:54;;;;;;;14.90;13.32;;;;;;;15.02;50.08;100526.75;5034359;28;20123;-67
2021/11/21 10:19:19;;;;;;;15.88;13.45;;;;;;;14.76;50.46;100488.41;5032886;28;20402;-67
2021/11/21 10:21:45;;;;;;;21.48;12.93;;;;;;;15.13;49.68;100516.88;5003401;28;20496;-68
2021/11/21 10:24:28;;;;;;;14.70;12.45;;;;;;;15.39;48.83;100484.66;5020706;28;20029;-68
2021/11/21 10:27:21;;;;;;;20.98;13.73;;;;;;;15.65;48.63;100510.63;5021207;28;20038;-67
2021/11/21 10:29:49;;;;;;;19.10;14.63;;;;;;;15.69;49.00;100479.69;5025070;28;20873;-69
2021/11/21 10:32:26;;;;;;;15.20;13.65;;;;;;;16.53;46.96;100495.56;5027480;28;20712;-67
2021/11/21 10:34:57;;;;;;;18.75;13.63;;;;;;;16.46;47.64;100471.00;5023172;28;20138;-68
2021/11/21 10:37:35;;;;;;;27.13;12.40;;;;;;;16.57;47.32;100482.19;5023980;28;20125;-68
2021/11/21 10:40:05;;;;;;;14.00;11.38;;;;;;;16.83;46.28;100459.53;5022699;28;20038;-68
2021/11/21 10:42:32;;;;;;;24.20;12.95;;;;;;;17.50;45.26;100472.81;5024978;28;20034;-68
2021/11/21 10:44:57;;;;;;;16.77;12.18;;;;;;;17.14;45.77;100456.97;5046594;28;20090;-68
2021/11/21 10:47:23;;;;;;;16.90;12.35;;;;;;;17.59;44.96;100469.91;5042218;28;20056;-68
2021/11/21 10:49:53;;;;;;;15.20;13.50;;;;;;;17.79;44.34;100441.91;5033592;28;20440;-67
2021/11/21 10:52:22;;;;;;;20.98;13.15;;;;;;;16.98;44.55;100445.91;5017393;28;20049;-67
2021/11/21 10:54:57;;;;;;;111.75;68.60;;;;;;;17.63;44.20;100445.03;5021507;28;20065;-67
2021/11/21 10:57:36;;;;;;;29.55;19.40;;;;;;;17.36;44.90;100435.19;5017621;28;20064;-68
2021/11/21 11:00:12;;;;;;;29.80;21.75;;;;;;;17.71;44.30;100458.06;5020964;28;20084;-68
2021/11/21 11:02:42;;;;;;;22.23;17.65;;;;;;;17.04;44.60;100435.16;5019570;28;20172;-68
2021/11/21 11:05:09;;;;;;;41.28;29.27;;;;;;;17.30;45.18;100441.50;5022622;28;20107;-68
2021/11/21 11:07:49;;;;;;;18.67;16.65;;;;;;;17.54;43.89;100439.97;5029851;28;20053;-67
2021/11/21 11:10:16;;;;;;;19.48;13.88;;;;;;;17.14;44.83;100405.72;5040383;28;20481;-67
2021/11/21 11:12:43;;;;;;;14.77;12.48;;;;;;;17.18;44.81;100425.94;5022454;28;20034;-67
2021/11/21 11:15:09;;;;;;;24.77;13.35;;;;;;;17.69;44.22;100428.03;5020888;28;20140;-67
2021/11/21 11:17:36;;;;;;;22.90;15.30;;;;;;;17.44;44.69;100417.25;5024768;28;20520;-67
2021/11/21 11:20:05;;;;;;;22.95;13.48;;;;;;;17.44;44.75;100406.63;5020475;28;20061;-67